createdAt,value
2023-03-05T00:01:02.338Z,99329.40
2023-03-05T00:03:51.030Z,99342.91
2023-03-05T00:06:41.699Z,99332.60
2023-03-05T00:09:39.571Z,99341.59
2023-03-05T00:12:34.265Z,99340.21
2023-03-05T00:15:19.788Z,99340.60
2023-03-05T00:18:23.573Z,99341.70
2023-03-05T00:21:18.669Z,99343.21
2023-03-05T00:24:30.773Z,99348.36
2023-03-05T00:27:23.545Z,99348.77
2023-03-05T00:30:13.419Z,99357.08
2023-03-05T00:33:06.471Z,99356.85
2023-03-05T00:35:56.737Z,99372.95
2023-03-05T00:38:41.639Z,99360.85
2023-03-05T00:41:12.882Z,99370.55
2023-03-05T00:43:43.653Z,99377.66
2023-03-05T00:46:12.257Z,99383.39
2023-03-05T00:48:40.590Z,99380.95
2023-03-05T00:51:09.583Z,99387.64
2023-03-05T00:53:38.170Z,99390.23
2023-03-05T00:56:07.319Z,99391.16
2023-03-05T00:58:36.596Z,99392.22
2023-03-05T01:01:06.198Z,99395.20
2023-03-05T01:03:35.295Z,99394.10
2023-03-05T01:06:05.412Z,99399.79
2023-03-05T01:08:35.835Z,99401.16
2023-03-05T01:11:05.699Z,99404.29
2023-03-05T01:13:35.370Z,99406.77
2023-03-05T01:16:04.410Z,99409.23
2023-03-05T01:18:33.013Z,99408.40
2023-03-05T01:21:01.499Z,99413.38
2023-03-05T01:23:30.210Z,99411.58
2023-03-05T01:25:59.527Z,99416.52
2023-03-05T01:28:28.386Z,99418.19
2023-03-05T01:30:56.788Z,99418.79
2023-03-05T01:33:25.446Z,99425.67
2023-03-05T01:35:53.993Z,99437.73
2023-03-05T01:38:22.517Z,99433.63
2023-03-05T01:40:51.204Z,99438.07
2023-03-05T01:43:24.049Z,99416.83
2023-03-05T01:46:35.162Z,99433.98
2023-03-05T01:49:09.798Z,99435.46
2023-03-05T01:51:51.638Z,99436.81
2023-03-05T01:54:24.584Z,99444.17
2023-03-05T01:56:53.347Z,99443.02
2023-03-05T01:59:22.063Z,99447.23
2023-03-05T02:01:53.524Z,99441.40
2023-03-05T02:04:24.665Z,99449.04
2023-03-05T02:06:53.888Z,99442.20
2023-03-05T02:09:25.120Z,99452.67
2023-03-05T02:11:58.612Z,99451.89
2023-03-05T02:14:28.379Z,99461.20
2023-03-05T02:16:56.870Z,99457.69
2023-03-05T02:19:26.839Z,99456.41
2023-03-05T02:21:55.720Z,99458.31
2023-03-05T02:24:37.228Z,99462.46
2023-03-05T02:27:05.798Z,99469.31
2023-03-05T02:29:34.285Z,99463.64
2023-03-05T02:32:04.008Z,99461.39
2023-03-05T02:34:32.476Z,99464.26
2023-03-05T02:37:04.846Z,99469.16
2023-03-05T02:39:34.562Z,99467.89
2023-03-05T02:42:03.269Z,99459.13
2023-03-05T02:44:36.068Z,99463.20
2023-03-05T02:47:08.994Z,99472.10
2023-03-05T02:49:40.399Z,99467.66
2023-03-05T02:52:09.200Z,99465.52
2023-03-05T02:54:37.658Z,99481.55
2023-03-05T02:57:06.261Z,99475.86
2023-03-05T02:59:34.883Z,99478.88
2023-03-05T03:02:03.919Z,99471.06
2023-03-05T03:04:33.672Z,99474.05
2023-03-05T03:07:02.322Z,99477.72
2023-03-05T03:09:31.830Z,99478.50
2023-03-05T03:12:01.132Z,99479.86
2023-03-05T03:14:39.752Z,99485.64
2023-03-05T03:17:10.397Z,99488.65
2023-03-05T03:19:39.180Z,99481.30
2023-03-05T03:22:07.973Z,99480.60
2023-03-05T03:24:37.374Z,99478.98
2023-03-05T03:27:05.703Z,99481.78
2023-03-05T03:29:34.347Z,99481.75
2023-03-05T03:32:02.772Z,99479.46
2023-03-05T03:34:32.742Z,99481.07
2023-03-05T03:37:01.853Z,99482.00
2023-03-05T03:39:30.427Z,99479.09
2023-03-05T03:41:58.913Z,99481.73
2023-03-05T03:44:27.191Z,99492.23
2023-03-05T03:46:57.925Z,99482.36
2023-03-05T03:49:26.517Z,99485.77
2023-03-05T03:51:55.814Z,99489.95
2023-03-05T03:54:24.254Z,99486.91
2023-03-05T03:56:54.705Z,99499.00
2023-03-05T03:59:25.390Z,99483.00
2023-03-05T04:01:54.460Z,99493.73
2023-03-05T04:04:23.506Z,99500.08
2023-03-05T04:06:56.038Z,99496.64
2023-03-05T04:09:44.692Z,99494.55
2023-03-05T04:12:41.500Z,99492.91
2023-03-05T04:15:37.262Z,99495.42
2023-03-05T04:18:24.080Z,99504.36
2023-03-05T04:21:16.091Z,99509.52
2023-03-05T04:24:08.447Z,99508.66
2023-03-05T04:27:19.438Z,99513.09
2023-03-05T04:30:09.352Z,99512.33
2023-03-05T04:32:43.436Z,99513.52
2023-03-05T04:35:11.827Z,99520.15
2023-03-05T04:37:40.107Z,99517.84
2023-03-05T04:40:09.582Z,99522.52
2023-03-05T04:42:38.080Z,99526.48
2023-03-05T04:45:09.020Z,99531.05
2023-03-05T04:47:38.533Z,99532.08
2023-03-05T04:50:10.494Z,99527.80
2023-03-05T04:52:41.294Z,99542.91
2023-03-05T04:55:10.816Z,99540.96
2023-03-05T04:57:40.962Z,99541.74
2023-03-05T05:00:15.354Z,99540.63
2023-03-05T05:02:47.505Z,99544.62
2023-03-05T05:05:18.088Z,99545.45
2023-03-05T05:07:47.288Z,99545.27
2023-03-05T05:10:16.134Z,99543.65
2023-03-05T05:12:44.597Z,99543.82
2023-03-05T05:15:14.794Z,99541.36
2023-03-05T05:17:44.093Z,99551.83
2023-03-05T05:20:13.516Z,99554.68
2023-03-05T05:22:43.666Z,99552.45
2023-03-05T05:25:12.256Z,99557.22
2023-03-05T05:27:40.681Z,99551.84
2023-03-05T05:30:10.834Z,99558.96
2023-03-05T05:32:41.683Z,99559.80
2023-03-05T05:35:11.207Z,99557.58
2023-03-05T05:37:39.642Z,99567.23
2023-03-05T05:40:09.024Z,99562.95
2023-03-05T05:42:38.061Z,99568.50
2023-03-05T05:45:08.934Z,99562.19
2023-03-05T05:47:40.295Z,99566.58
2023-03-05T05:50:09.684Z,99574.59
2023-03-05T05:52:39.523Z,99576.48
2023-03-05T05:55:08.721Z,99578.98
2023-03-05T05:57:37.034Z,99591.95
2023-03-05T06:00:10.157Z,99592.95
2023-03-05T06:02:42.391Z,99588.70
2023-03-05T06:05:13.165Z,99591.41
2023-03-05T06:07:41.723Z,99601.56
2023-03-05T06:10:11.338Z,99604.64
2023-03-05T06:12:40.032Z,99603.89
2023-03-05T06:15:09.872Z,99606.54
2023-03-05T06:17:39.138Z,99620.59
2023-03-05T06:20:14.253Z,99610.23
2023-03-05T06:22:43.476Z,99609.16
2023-03-05T06:25:11.971Z,99608.51
2023-03-05T06:27:40.748Z,99601.33
2023-03-05T06:30:10.694Z,99609.70
2023-03-05T06:32:39.220Z,99609.14
2023-03-05T06:35:09.233Z,99610.25
2023-03-05T06:37:37.754Z,99605.30
2023-03-05T06:40:07.977Z,99599.55
2023-03-05T06:42:36.567Z,99608.92
2023-03-05T06:45:06.045Z,99605.25
2023-03-05T06:47:35.322Z,99605.83
2023-03-05T06:50:05.950Z,99599.66
2023-03-05T06:52:34.696Z,99601.12
2023-03-05T06:55:05.689Z,99606.73
2023-03-05T06:57:36.480Z,99601.98
2023-03-05T07:00:11.893Z,99603.29
2023-03-05T07:02:41.110Z,99607.61
2023-03-05T07:05:10.264Z,99607.63
2023-03-05T07:07:39.525Z,99612.57
2023-03-05T07:10:09.471Z,99610.77
2023-03-05T07:12:44.492Z,99613.65
2023-03-05T07:15:13.068Z,99609.38
2023-03-05T07:17:41.659Z,99611.86
2023-03-05T07:20:12.104Z,99608.79
2023-03-05T07:22:40.586Z,99607.05
2023-03-05T07:25:10.170Z,99608.83
2023-03-05T07:27:39.276Z,99617.31
2023-03-05T07:30:08.496Z,99613.05
2023-03-05T07:32:38.028Z,99615.88
2023-03-05T07:35:07.611Z,99623.33
2023-03-05T07:37:37.006Z,99635.27
2023-03-05T07:40:06.616Z,99629.98
2023-03-05T07:42:39.417Z,99627.68
2023-03-05T07:45:18.010Z,99635.69
2023-03-05T07:47:46.190Z,99630.79
2023-03-05T07:50:14.569Z,99635.04
2023-03-05T07:52:43.256Z,99628.42
2023-03-05T07:55:29.965Z,99627.27
2023-03-05T07:57:58.553Z,99620.89
2023-03-05T08:00:34.041Z,99629.41
2023-03-05T08:03:02.591Z,99622.55
2023-03-05T08:05:30.966Z,99636.03
2023-03-05T08:07:59.660Z,99630.30
2023-03-05T08:10:30.086Z,99628.05
2023-03-05T08:12:59.182Z,99635.80
2023-03-05T08:15:28.687Z,99631.42
2023-03-05T08:17:58.108Z,99638.98
2023-03-05T08:20:28.728Z,99629.24
2023-03-05T08:22:57.228Z,99632.30
2023-03-05T08:25:27.448Z,99633.31
2023-03-05T08:27:56.015Z,99634.80
2023-03-05T08:30:27.620Z,99640.07
2023-03-05T08:32:57.269Z,99652.75
2023-03-05T08:35:25.622Z,99667.33
2023-03-05T08:37:54.479Z,99659.98
2023-03-05T08:40:23.463Z,99662.26
2023-03-05T08:42:52.454Z,99662.73
2023-03-05T08:45:24.948Z,99664.38
2023-03-05T08:47:54.848Z,99667.67
2023-03-05T08:50:26.424Z,99662.90
2023-03-05T08:52:57.366Z,99673.73
2023-03-05T08:55:25.710Z,99673.61
2023-03-05T08:57:54.207Z,99666.37
2023-03-05T09:00:24.978Z,99672.64
2023-03-05T09:02:53.993Z,99663.50
2023-03-05T09:05:22.461Z,99663.71
2023-03-05T09:07:50.812Z,99665.67
2023-03-05T09:10:23.214Z,99672.73
2023-03-05T09:12:51.665Z,99663.69
2023-03-05T09:15:21.995Z,99663.35
2023-03-05T09:17:52.421Z,99660.48
2023-03-05T09:20:21.339Z,99665.67
2023-03-05T09:22:51.664Z,99678.39
2023-03-05T09:25:20.250Z,99662.67
2023-03-05T09:27:48.649Z,99667.73
2023-03-05T09:30:17.476Z,99663.21
2023-03-05T09:32:45.886Z,99663.58
2023-03-05T09:35:16.200Z,99655.70
2023-03-05T09:37:45.202Z,99650.41
2023-03-05T09:40:17.312Z,99648.75
2023-03-05T09:43:06.152Z,99646.48
2023-03-05T09:45:45.192Z,99641.91
2023-03-05T09:48:26.765Z,99649.44
2023-03-05T09:51:03.576Z,99645.61
2023-03-05T09:53:46.962Z,99643.70
2023-03-05T09:56:24.463Z,99655.17
2023-03-05T09:58:56.088Z,99650.77
2023-03-05T10:01:29.961Z,99645.46
2023-03-05T10:04:02.017Z,99649.13
2023-03-05T10:06:45.735Z,99644.20
2023-03-05T10:09:24.859Z,99636.55
2023-03-05T10:12:01.643Z,99643.61
2023-03-05T10:14:37.094Z,99639.31
2023-03-05T10:17:41.813Z,99641.00
2023-03-05T10:21:02.125Z,99635.55
2023-03-05T10:23:41.669Z,99636.56
2023-03-05T10:27:04.566Z,99625.77
2023-03-05T10:30:05.273Z,99620.86
2023-03-05T10:32:47.874Z,99637.06
2023-03-05T10:35:50.807Z,99624.23
2023-03-05T10:38:23.250Z,99629.86
2023-03-05T10:40:53.172Z,99630.36
2023-03-05T10:43:36.913Z,99621.02
2023-03-05T10:46:05.545Z,99615.78
2023-03-05T10:48:38.426Z,99615.30
2023-03-05T10:51:14.351Z,99615.08
2023-03-05T10:54:02.403Z,99618.58
2023-03-05T10:56:32.714Z,99612.10
2023-03-05T10:59:01.207Z,99617.67
2023-03-05T11:01:31.152Z,99611.34
2023-03-05T11:04:06.863Z,99614.20
2023-03-05T11:06:43.050Z,99610.27
2023-03-05T11:09:20.388Z,99619.84
2023-03-05T11:12:16.244Z,99614.90
2023-03-05T11:15:07.664Z,99609.40
2023-03-05T11:17:43.520Z,99617.76
2023-03-05T11:20:26.579Z,99604.95
2023-03-05T11:23:14.952Z,99602.89
2023-03-05T11:26:35.187Z,99608.70
2023-03-05T11:29:05.210Z,99605.80
2023-03-05T11:31:34.041Z,99611.29
2023-03-05T11:34:08.841Z,99610.98
2023-03-05T11:36:42.075Z,99608.06
2023-03-05T11:39:22.694Z,99612.13
2023-03-05T11:41:54.783Z,99605.23
2023-03-05T11:44:53.384Z,99600.77
2023-03-05T11:47:49.584Z,99603.42
2023-03-05T11:50:24.113Z,99599.09
2023-03-05T11:53:11.960Z,99593.65
2023-03-05T11:55:49.555Z,99595.45
2023-03-05T11:58:28.707Z,99590.44
2023-03-05T12:00:57.378Z,99589.77
2023-03-05T12:03:36.851Z,99583.03
2023-03-05T12:06:23.939Z,99584.91
2023-03-05T12:08:55.492Z,99584.17
2023-03-05T12:11:29.385Z,99585.15
2023-03-05T12:14:12.538Z,99583.48
2023-03-05T12:16:58.113Z,99591.48
2023-03-05T12:19:31.017Z,99591.57
2023-03-05T12:22:00.202Z,99591.30
2023-03-05T12:24:28.801Z,99588.05
2023-03-05T12:27:07.452Z,99591.68
2023-03-05T12:29:51.972Z,99592.23
2023-03-05T12:32:23.386Z,99592.23
2023-03-05T12:35:04.986Z,99593.26
2023-03-05T12:37:33.500Z,99592.25
2023-03-05T12:40:12.954Z,99591.45
2023-03-05T12:42:52.250Z,99585.14
2023-03-05T12:45:25.912Z,99580.77
2023-03-05T12:47:57.654Z,99588.30
2023-03-05T12:50:29.033Z,99583.79
2023-03-05T12:53:07.369Z,99590.79
2023-03-05T12:55:48.820Z,99591.55
2023-03-05T12:58:50.052Z,99587.29
2023-03-05T13:01:37.580Z,99592.92
2023-03-05T13:04:11.313Z,99591.50
2023-03-05T13:06:39.762Z,99588.04
2023-03-05T13:09:16.293Z,99588.14
2023-03-05T13:11:47.419Z,99587.85
2023-03-05T13:14:32.424Z,99586.78
2023-03-05T13:17:01.548Z,99587.40
2023-03-05T13:19:30.129Z,99581.50
2023-03-05T13:22:00.792Z,99579.36
2023-03-05T13:24:30.478Z,99581.15
2023-03-05T13:27:00.117Z,99579.78
2023-03-05T13:29:30.791Z,99578.84
2023-03-05T13:32:30.815Z,99577.34
2023-03-05T13:35:00.662Z,99570.85
2023-03-05T13:37:32.011Z,99569.48
2023-03-05T13:40:07.569Z,99568.41
2023-03-05T13:42:37.152Z,99567.92
2023-03-05T13:45:30.219Z,99567.35
2023-03-05T13:48:03.160Z,99561.30
2023-03-05T13:50:33.475Z,99560.45
2023-03-05T13:53:25.073Z,99560.45
2023-03-05T13:56:08.415Z,99558.69
2023-03-05T13:58:50.092Z,99555.33
2023-03-05T14:01:42.866Z,99552.73
2023-03-05T14:04:14.306Z,99548.86
2023-03-05T14:06:56.101Z,99550.90
2023-03-05T14:09:26.730Z,99549.52
2023-03-05T14:12:04.837Z,99542.63
2023-03-05T14:14:53.086Z,99547.35
2023-03-05T14:17:27.914Z,99550.17
2023-03-05T14:20:07.668Z,99548.44
2023-03-05T14:22:41.112Z,99556.05
2023-03-05T14:25:40.016Z,99545.59
2023-03-05T14:28:29.154Z,99551.38
2023-03-05T14:30:58.956Z,99549.18
2023-03-05T14:33:32.134Z,99556.11
2023-03-05T14:36:00.864Z,99554.64
2023-03-05T14:38:30.933Z,99549.81
2023-03-05T14:40:59.225Z,99544.56
2023-03-05T14:43:27.509Z,99544.48
2023-03-05T14:45:59.213Z,99548.75
2023-03-05T14:48:27.443Z,99544.24
2023-03-05T14:50:57.347Z,99546.45
2023-03-05T14:53:37.318Z,99544.08
2023-03-05T14:56:09.895Z,99548.21
2023-03-05T14:58:41.187Z,99547.83
2023-03-05T15:01:12.207Z,99547.85
2023-03-05T15:03:41.910Z,99549.48
2023-03-05T15:06:33.029Z,99546.59
2023-03-05T15:09:01.923Z,99547.70
2023-03-05T15:11:36.951Z,99555.61
2023-03-05T15:14:06.250Z,99551.27
2023-03-05T15:16:34.741Z,99546.18
2023-03-05T15:19:06.370Z,99547.52
2023-03-05T15:21:37.175Z,99544.37
2023-03-05T15:24:06.716Z,99549.50
2023-03-05T15:26:35.111Z,99556.75
2023-03-05T15:29:03.432Z,99557.06
2023-03-05T15:31:38.819Z,99560.20
2023-03-05T15:34:07.423Z,99561.47
2023-03-05T15:36:38.873Z,99567.51
2023-03-05T15:39:07.374Z,99568.16
2023-03-05T15:41:37.051Z,99570.02
2023-03-05T15:44:05.667Z,99567.95
2023-03-05T15:46:35.343Z,99565.88
2023-03-05T15:49:04.292Z,99569.23
2023-03-05T15:51:33.060Z,99571.41
2023-03-05T15:54:03.913Z,99573.90
2023-03-05T15:56:32.375Z,99576.88
2023-03-05T15:59:01.578Z,99585.40
2023-03-05T16:01:30.048Z,99583.44
2023-03-05T16:03:58.342Z,99586.13
2023-03-05T16:06:29.147Z,99586.77
2023-03-05T16:09:02.481Z,99589.36
2023-03-05T16:11:35.259Z,99590.34
2023-03-05T16:14:06.945Z,99592.41
2023-03-05T16:16:36.260Z,99590.52
2023-03-05T16:19:05.154Z,99594.32
2023-03-05T16:21:33.364Z,99594.77
2023-03-05T16:24:07.310Z,99594.39
2023-03-05T16:26:46.486Z,99596.11
2023-03-05T16:29:15.663Z,99600.16
2023-03-05T16:31:45.619Z,99601.48
2023-03-05T16:34:16.354Z,99604.64
2023-03-05T16:36:52.866Z,99605.59
2023-03-05T16:39:22.268Z,99609.21
2023-03-05T16:41:55.887Z,99607.46
2023-03-05T16:44:25.586Z,99613.13
2023-03-05T16:46:56.812Z,99615.96
2023-03-05T16:49:25.423Z,99613.23
2023-03-05T16:51:53.905Z,99614.73
2023-03-05T16:54:22.270Z,99612.71
2023-03-05T16:56:50.665Z,99613.13
2023-03-05T16:59:19.927Z,99609.23
2023-03-05T17:01:48.249Z,99612.21
2023-03-05T17:04:16.580Z,99609.80
2023-03-05T17:06:46.919Z,99606.55
2023-03-05T17:09:24.336Z,99609.56
2023-03-05T17:11:53.567Z,99610.94
2023-03-05T17:14:23.462Z,99607.05
2023-03-05T17:16:53.183Z,99607.13
2023-03-05T17:19:25.192Z,99604.64
2023-03-05T17:21:55.547Z,99608.37
2023-03-05T17:24:25.382Z,99605.41
2023-03-05T17:27:03.581Z,99602.75
2023-03-05T17:29:38.432Z,99602.69
2023-03-05T17:32:11.262Z,99602.46
2023-03-05T17:34:41.794Z,99605.20
2023-03-05T17:37:22.353Z,99603.85
2023-03-05T17:39:55.443Z,99601.64
2023-03-05T17:42:30.774Z,99597.04
2023-03-05T17:45:04.956Z,99600.20
2023-03-05T17:47:42.358Z,99597.75
2023-03-05T17:50:37.995Z,99595.98
2023-03-05T17:53:27.367Z,99596.13
2023-03-05T17:56:03.872Z,99599.13
2023-03-05T17:58:52.185Z,99593.34
2023-03-05T18:01:35.709Z,99592.43
2023-03-05T18:04:18.922Z,99591.38
2023-03-05T18:06:49.590Z,99593.58
2023-03-05T18:09:24.531Z,99593.03
2023-03-05T18:12:10.099Z,99594.58
2023-03-05T18:14:50.822Z,99592.52
2023-03-05T18:17:25.910Z,99589.11
2023-03-05T18:20:02.808Z,99593.05
2023-03-05T18:22:32.491Z,99597.52
2023-03-05T18:25:03.739Z,99598.31
2023-03-05T18:27:39.839Z,99597.58
2023-03-05T18:30:12.498Z,99599.26
2023-03-05T18:32:43.427Z,99600.14
2023-03-05T18:35:17.935Z,99598.77
2023-03-05T18:37:51.891Z,99599.05
2023-03-05T18:40:27.129Z,99600.01
2023-03-05T18:43:00.371Z,99599.70
2023-03-05T18:45:39.454Z,99595.75
2023-03-05T18:48:19.887Z,99593.42
2023-03-05T18:51:13.549Z,99592.23
2023-03-05T18:54:14.738Z,99591.52
2023-03-05T18:56:53.891Z,99593.75
2023-03-05T18:59:37.819Z,99594.73
2023-03-05T19:02:28.258Z,99593.41
2023-03-05T19:05:13.793Z,99595.85
2023-03-05T19:07:55.477Z,99594.85
2023-03-05T19:10:34.092Z,99600.63
2023-03-05T19:13:41.252Z,99597.10
2023-03-05T19:16:16.938Z,99598.94
2023-03-05T19:19:09.788Z,99597.92
2023-03-05T19:21:54.089Z,99595.55
2023-03-05T19:24:24.559Z,99593.66
2023-03-05T19:26:57.054Z,99594.77
2023-03-05T19:29:49.943Z,99596.54
2023-03-05T19:32:52.294Z,99594.04
2023-03-05T19:35:49.141Z,99593.83
2023-03-05T19:38:25.368Z,99593.77
2023-03-05T19:41:04.328Z,99593.65
2023-03-05T19:43:43.382Z,99594.80
2023-03-05T19:46:38.136Z,99589.21
2023-03-05T19:49:34.988Z,99588.38
2023-03-05T19:52:27.475Z,99587.25
2023-03-05T19:55:04.580Z,99586.64
2023-03-05T19:57:35.354Z,99587.89
2023-03-05T20:00:05.128Z,99585.74
2023-03-05T20:02:33.772Z,99588.28
2023-03-05T20:05:03.996Z,99584.76
2023-03-05T20:07:32.792Z,99582.94
2023-03-05T20:10:05.567Z,99587.23
2023-03-05T20:12:36.616Z,99584.52
2023-03-05T20:15:05.379Z,99583.53
2023-03-05T20:17:33.792Z,99581.73
2023-03-05T20:20:02.380Z,99581.90
2023-03-05T20:22:30.892Z,99583.98
2023-03-05T20:24:59.450Z,99580.55
2023-03-05T20:27:28.171Z,99578.80
2023-03-05T20:29:56.417Z,99576.21
2023-03-05T20:32:24.845Z,99576.77
2023-03-05T20:34:53.303Z,99574.39
2023-03-05T20:37:22.310Z,99569.93
2023-03-05T20:39:53.099Z,99571.05
2023-03-05T20:42:21.494Z,99570.27
2023-03-05T20:44:51.125Z,99565.79
2023-03-05T20:47:36.391Z,99564.30
2023-03-05T20:50:05.324Z,99562.16
2023-03-05T20:52:34.783Z,99561.40
2023-03-05T20:55:04.089Z,99556.96
2023-03-05T20:57:34.429Z,99551.79
2023-03-05T21:00:03.924Z,99555.34
2023-03-05T21:02:33.225Z,99555.02
2023-03-05T21:05:01.812Z,99553.11
2023-03-05T21:07:31.212Z,99556.15
2023-03-05T21:09:59.514Z,99554.35
2023-03-05T21:12:29.634Z,99546.31
2023-03-05T21:14:58.634Z,99555.84
2023-03-05T21:17:31.032Z,99560.44
2023-03-05T21:19:59.331Z,99559.55
2023-03-05T21:22:27.856Z,99559.69
2023-03-05T21:25:04.868Z,99561.12
2023-03-05T21:27:34.749Z,99558.24
2023-03-05T21:30:03.764Z,99558.33
2023-03-05T21:32:32.587Z,99559.59
2023-03-05T21:35:01.847Z,99561.48
2023-03-05T21:37:30.362Z,99557.23
2023-03-05T21:39:58.758Z,99555.70
2023-03-05T21:42:32.130Z,99553.02
2023-03-05T21:45:01.323Z,99554.61
2023-03-05T21:47:29.989Z,99552.92
2023-03-05T21:49:58.491Z,99553.92
2023-03-05T21:52:27.161Z,99550.36
2023-03-05T21:54:55.648Z,99553.09
2023-03-05T21:57:26.570Z,99546.69
2023-03-05T21:59:55.265Z,99544.92
2023-03-05T22:02:23.881Z,99541.20
2023-03-05T22:04:53.334Z,99536.55
2023-03-05T22:07:23.173Z,99537.23
2023-03-05T22:09:55.792Z,99536.22
2023-03-05T22:12:39.526Z,99533.64
2023-03-05T22:15:09.101Z,99534.66
2023-03-05T22:17:39.122Z,99536.35
2023-03-05T22:20:09.066Z,99540.48
2023-03-05T22:22:37.554Z,99539.04
2023-03-05T22:25:07.479Z,99543.59
2023-03-05T22:27:35.921Z,99542.54
2023-03-05T22:30:07.309Z,99539.09
2023-03-05T22:32:37.035Z,99536.56
2023-03-05T22:35:14.557Z,99538.00
2023-03-05T22:37:43.061Z,99541.46
2023-03-05T22:40:16.348Z,99539.09
2023-03-05T22:42:46.995Z,99541.54
2023-03-05T22:45:17.418Z,99540.81
2023-03-05T22:47:48.720Z,99540.52
2023-03-05T22:50:19.964Z,99541.49
2023-03-05T22:52:48.296Z,99543.20
2023-03-05T22:55:16.895Z,99536.54
2023-03-05T22:57:46.700Z,99533.35
2023-03-05T23:00:18.866Z,99534.05
2023-03-05T23:02:47.461Z,99533.65
2023-03-05T23:05:15.840Z,99530.92
2023-03-05T23:07:45.248Z,99530.90
2023-03-05T23:10:19.881Z,99529.79
2023-03-05T23:12:50.730Z,99528.20
2023-03-05T23:15:30.335Z,99525.56
2023-03-05T23:18:01.032Z,99520.58
2023-03-05T23:20:31.968Z,99520.20
2023-03-05T23:23:02.039Z,99517.99
2023-03-05T23:25:33.053Z,99516.29
2023-03-05T23:28:01.702Z,99517.63
2023-03-05T23:30:37.408Z,99510.95
2023-03-05T23:33:12.278Z,99510.49
2023-03-05T23:35:49.838Z,99504.66
2023-03-05T23:38:19.686Z,99499.60
2023-03-05T23:40:50.215Z,99497.61
2023-03-05T23:43:18.909Z,99492.73
2023-03-05T23:45:48.720Z,99490.64
2023-03-05T23:48:17.310Z,99483.11
2023-03-05T23:50:47.749Z,99482.54
2023-03-05T23:53:24.901Z,99479.19
2023-03-05T23:55:53.545Z,99478.34
2023-03-05T23:58:24.010Z,99473.30
